Time;durP1;ratioP1;P1;durP2;ratioP2;P2;SDS_P1;SDS_P2;PMS_P1;PMS_P2;Temp;Humidity;BMP_temperature;BMP_pressure;BME280_temperature;BME280_humidity;BME280_pressure;Samples;Min_cycle;Max_cycle;Signal;HPM_P1;HPM_P2
2022/07/11 00:02:04;;;;;;;6.00;1.75;;;17.00;99.90;;;;;;5048845;28;20076;-62
2022/07/11 00:04:30;;;;;;;3.78;1.85;;;17.00;99.90;;;;;;5049055;28;20044;-62
2022/07/11 00:06:57;;;;;;;5.38;2.10;;;17.00;99.90;;;;;;5048805;28;20037;-63
2022/07/11 00:09:23;;;;;;;4.07;1.95;;;17.10;99.90;;;;;;5051743;28;20453;-61
2022/07/11 00:11:49;;;;;;;3.42;1.83;;;17.00;99.90;;;;;;5029473;28;20111;-62
2022/07/11 00:14:16;;;;;;;7.32;2.00;;;17.00;99.90;;;;;;5050280;28;20072;-62
2022/07/11 00:16:42;;;;;;;4.63;2.13;;;17.00;99.90;;;;;;5052452;28;20047;-62
2022/07/11 00:19:08;;;;;;;4.97;1.80;;;17.00;99.90;;;;;;5034185;28;20450;-62
2022/07/11 00:21:35;;;;;;;5.32;2.25;;;17.00;99.90;;;;;;5031802;28;20029;-62
2022/07/11 00:24:04;;;;;;;7.15;1.95;;;17.00;99.90;;;;;;5050503;28;20046;-63
2022/07/11 00:26:30;;;;;;;6.32;2.55;;;16.90;99.90;;;;;;5052010;28;20041;-63
2022/07/11 00:28:56;;;;;;;5.63;2.35;;;16.90;99.90;;;;;;5047717;28;20033;-62
2022/07/11 00:31:22;;;;;;;4.90;2.58;;;16.90;99.90;;;;;;5031444;28;20430;-63
2022/07/11 00:33:48;;;;;;;6.22;2.50;;;16.90;99.90;;;;;;5033851;28;20036;-62
2022/07/11 00:36:14;;;;;;;4.68;2.38;;;16.80;99.90;;;;;;5053835;28;20036;-62
2022/07/11 00:38:39;;;;;;;3.17;2.10;;;16.80;99.90;;;;;;5044660;28;20450;-62
2022/07/11 00:41:05;;;;;;;6.72;2.42;;;16.80;99.90;;;;;;5047115;28;20069;-62
2022/07/11 00:43:32;;;;;;;5.22;2.28;;;16.80;99.90;;;;;;5053510;28;20056;-63
2022/07/11 00:45:59;;;;;;;4.07;2.17;;;16.90;99.90;;;;;;5036641;28;20180;-63
2022/07/11 00:48:25;;;;;;;4.57;2.25;;;16.90;99.90;;;;;;5056882;28;20037;-63
2022/07/11 00:50:51;;;;;;;3.85;2.20;;;16.80;99.90;;;;;;5058971;28;20036;-63
2022/07/11 00:53:18;;;;;;;3.97;2.13;;;16.80;99.90;;;;;;5036523;28;20055;-62
2022/07/11 00:55:44;;;;;;;5.25;2.30;;;16.80;99.90;;;;;;5039152;28;20406;-62
2022/07/11 00:58:11;;;;;;;3.80;1.98;;;16.80;99.90;;;;;;5058213;28;20451;-62
2022/07/11 01:00:37;;;;;;;3.50;2.08;;;16.80;99.90;;;;;;5055904;28;20099;-63
2022/07/11 01:03:02;;;;;;;3.97;2.10;;;16.80;99.90;;;;;;5061301;28;20029;-62
2022/07/11 01:05:28;;;;;;;4.40;2.30;;;16.80;99.90;;;;;;5061436;28;20029;-62
2022/07/11 01:07:54;;;;;;;5.53;2.35;;;16.80;99.90;;;;;;5055162;28;20187;-62
2022/07/11 01:10:20;;;;;;;2.53;1.77;;;16.80;99.90;;;;;;5040528;28;20048;-62
2022/07/11 01:12:46;;;;;;;5.60;2.10;;;16.80;99.90;;;;;;5039077;28;20047;-62
2022/07/11 01:15:14;;;;;;;5.47;2.30;;;16.70;99.90;;;;;;5026273;28;20049;-63
2022/07/11 01:17:39;;;;;;;4.35;2.30;;;16.70;99.90;;;;;;5054795;28;20103;-62
2022/07/11 01:20:06;;;;;;;4.15;2.20;;;16.70;99.90;;;;;;5053889;28;20458;-62
2022/07/11 01:22:38;;;;;;;5.30;2.00;;;16.70;99.90;;;;;;5060743;28;20060;-62
2022/07/11 01:25:05;;;;;;;4.57;2.40;;;16.70;99.90;;;;;;5041695;28;20075;-62
2022/07/11 01:27:32;;;;;;;4.00;2.20;;;16.70;99.90;;;;;;5058397;28;20033;-62
2022/07/11 01:29:58;;;;;;;4.10;2.20;;;16.60;99.90;;;;;;5053164;28;20041;-62
2022/07/11 01:32:23;;;;;;;3.05;2.08;;;16.60;99.90;;;;;;5054154;28;20035;-62
2022/07/11 01:34:50;;;;;;;5.13;2.17;;;16.60;99.90;;;;;;5057356;28;20186;-62
2022/07/11 01:37:16;;;;;;;4.35;2.28;;;16.70;99.90;;;;;;5055139;28;20115;-62
2022/07/11 01:39:41;;;;;;;7.00;2.53;;;16.60;99.90;;;;;;5039901;28;20041;-62
2022/07/11 01:42:07;;;;;;;4.57;2.30;;;16.60;99.90;;;;;;5037093;28;20043;-63
2022/07/11 01:44:33;;;;;;;3.50;2.60;;;16.60;99.90;;;;;;5049806;28;20361;-64
2022/07/11 01:46:58;;;;;;;5.22;2.50;;;16.60;99.90;;;;;;5057319;28;20037;-64
2022/07/11 01:49:29;;;;;;;4.93;2.60;;;16.70;99.90;;;;;;5053270;28;20036;-62
2022/07/11 01:51:56;;;;;;;4.05;2.30;;;16.60;99.90;;;;;;5055397;28;20036;-62
2022/07/11 01:54:21;;;;;;;4.43;2.47;;;16.60;99.90;;;;;;5020389;28;20029;-62
2022/07/11 01:56:47;;;;;;;4.50;2.65;;;16.60;99.90;;;;;;5049679;28;20029;-62
2022/07/11 01:59:13;;;;;;;5.80;2.65;;;16.60;99.90;;;;;;5049220;28;20514;-63
2022/07/11 02:01:39;;;;;;;4.43;2.53;;;16.60;99.90;;;;;;5053720;28;20351;-64
2022/07/11 02:04:05;;;;;;;3.90;2.47;;;16.50;99.90;;;;;;5054138;28;20040;-63
2022/07/11 02:06:31;;;;;;;5.22;2.88;;;16.50;99.90;;;;;;5049517;28;20048;-63
2022/07/11 02:08:57;;;;;;;8.13;2.80;;;16.50;99.90;;;;;;5031842;28;20040;-62
2022/07/11 02:11:23;;;;;;;6.78;2.90;;;16.50;99.90;;;;;;5053784;28;20047;-63
2022/07/11 02:13:49;;;;;;;4.25;2.63;;;16.50;99.90;;;;;;5048418;28;20099;-64
2022/07/11 02:16:16;;;;;;;6.15;2.92;;;16.50;99.90;;;;;;5053266;28;20052;-62
2022/07/11 02:18:41;;;;;;;7.43;3.00;;;16.50;99.90;;;;;;5052162;28;20043;-63
2022/07/11 02:21:08;;;;;;;5.45;3.13;;;16.50;99.90;;;;;;5054245;28;20120;-63
2022/07/11 02:23:33;;;;;;;5.50;2.75;;;16.40;99.90;;;;;;5034053;28;20087;-63
2022/07/11 02:25:59;;;;;;;7.65;3.17;;;16.40;99.90;;;;;;5030312;28;20080;-63
2022/07/11 02:28:25;;;;;;;7.25;3.00;;;16.40;99.90;;;;;;5033480;28;20123;-62
2022/07/11 02:30:50;;;;;;;7.78;3.10;;;16.30;99.90;;;;;;5053701;28;20051;-63
2022/07/11 02:33:16;;;;;;;5.45;2.97;;;16.30;99.90;;;;;;5054546;28;20128;-62
2022/07/11 02:35:46;;;;;;;6.28;3.17;;;16.30;99.90;;;;;;5033321;28;20051;-63
2022/07/11 02:38:12;;;;;;;7.22;3.42;;;16.30;99.90;;;;;;5055551;28;20063;-62
2022/07/11 02:40:38;;;;;;;6.25;3.53;;;16.30;99.90;;;;;;5051292;28;20041;-62
2022/07/11 02:43:05;;;;;;;8.18;3.45;;;16.20;99.90;;;;;;5036223;28;20107;-62
2022/07/11 02:45:31;;;;;;;6.60;3.33;;;16.30;99.90;;;;;;5053471;28;20029;-63
2022/07/11 02:47:56;;;;;;;8.48;3.55;;;16.30;99.90;;;;;;5048982;28;20513;-62
2022/07/11 02:50:22;;;;;;;8.32;3.28;;;16.20;99.90;;;;;;5053827;28;20041;-63
2022/07/11 02:52:48;;;;;;;6.53;3.30;;;16.20;99.90;;;;;;5049211;28;20095;-62
2022/07/11 02:55:15;;;;;;;6.75;3.50;;;16.30;99.90;;;;;;5053154;28;20037;-63
2022/07/11 02:57:41;;;;;;;9.40;4.63;;;16.20;99.90;;;;;;5050243;28;20513;-63
2022/07/11 03:00:15;;;;;;;7.45;3.72;;;16.20;99.90;;;;;;5041391;28;20037;-62
2022/07/11 03:02:40;;;;;;;7.57;3.80;;;16.10;99.90;;;;;;5042248;28;20056;-63
2022/07/11 03:05:07;;;;;;;8.27;3.38;;;16.20;99.90;;;;;;5055447;28;20033;-63
2022/07/11 03:07:32;;;;;;;5.57;4.10;;;16.20;99.90;;;;;;5052260;28;20066;-63
2022/07/11 03:09:58;;;;;;;7.88;4.45;;;16.20;99.90;;;;;;5044087;28;20060;-63
2022/07/11 03:12:23;;;;;;;9.25;4.00;;;16.10;99.90;;;;;;5050844;28;20068;-64
2022/07/11 03:14:49;;;;;;;7.05;4.00;;;16.10;99.90;;;;;;5028243;28;20041;-62
2022/07/11 03:17:17;;;;;;;8.90;3.60;;;16.10;99.90;;;;;;5035706;28;20048;-63
2022/07/11 03:19:42;;;;;;;8.77;3.70;;;16.10;99.90;;;;;;5054019;28;20166;-63
2022/07/11 03:22:08;;;;;;;7.97;4.10;;;16.10;99.90;;;;;;5034016;28;20140;-63
2022/07/11 03:24:34;;;;;;;8.55;4.13;;;16.10;99.90;;;;;;5050216;28;20460;-63
2022/07/11 03:26:59;;;;;;;8.68;3.88;;;16.10;99.90;;;;;;5034281;28;20053;-63
2022/07/11 03:29:25;;;;;;;10.25;4.50;;;16.00;99.90;;;;;;5054350;28;20071;-63
2022/07/11 03:31:51;;;;;;;7.50;3.70;;;16.00;99.90;;;;;;5053869;28;20119;-63
2022/07/11 03:34:16;;;;;;;5.72;3.53;;;16.00;99.90;;;;;;5032139;28;20288;-62
2022/07/11 03:36:42;;;;;;;9.52;3.78;;;16.00;99.90;;;;;;5030703;28;20037;-64
2022/07/11 03:39:08;;;;;;;8.45;3.85;;;16.00;99.90;;;;;;5027721;28;20366;-63
2022/07/11 03:41:34;;;;;;;8.35;4.20;;;16.00;99.90;;;;;;5051410;28;20029;-62
2022/07/11 03:44:00;;;;;;;7.30;4.05;;;16.00;99.90;;;;;;5034392;28;20120;-63
2022/07/11 03:46:25;;;;;;;9.18;3.92;;;16.00;99.90;;;;;;5049854;28;20442;-63
2022/07/11 03:48:51;;;;;;;10.32;4.30;;;16.10;99.90;;;;;;5035284;28;20048;-63
2022/07/11 03:51:16;;;;;;;8.07;4.35;;;16.00;99.90;;;;;;5037995;28;20033;-63
2022/07/11 03:53:43;;;;;;;6.50;3.83;;;16.00;99.90;;;;;;5038225;28;20037;-64
2022/07/11 03:56:09;;;;;;;8.63;3.90;;;16.00;99.90;;;;;;5029889;28;20485;-63
2022/07/11 03:58:35;;;;;;;7.70;3.78;;;16.10;99.90;;;;;;5033357;28;20041;-63
2022/07/11 04:01:00;;;;;;;8.25;4.07;;;16.10;99.90;;;;;;5032634;28;20029;-62
2022/07/11 04:03:26;;;;;;;8.60;4.38;;;16.10;99.90;;;;;;5052124;28;20048;-62
2022/07/11 04:05:52;;;;;;;10.10;3.80;;;16.10;99.90;;;;;;5034540;28;20362;-63
2022/07/11 04:08:18;;;;;;;11.95;4.32;;;16.10;99.90;;;;;;5037483;28;20374;-62
2022/07/11 04:10:44;;;;;;;8.23;4.18;;;16.10;99.90;;;;;;5032098;28;20390;-63
2022/07/11 04:13:09;;;;;;;9.55;4.03;;;16.20;99.90;;;;;;5032165;28;20045;-62
2022/07/11 04:15:35;;;;;;;6.18;3.85;;;16.20;99.90;;;;;;5056248;28;20118;-62
2022/07/11 04:18:01;;;;;;;6.57;4.10;;;16.20;99.90;;;;;;5051072;28;20103;-63
2022/07/11 04:20:27;;;;;;;6.50;3.47;;;16.30;99.90;;;;;;5051101;28;20048;-63
2022/07/11 04:22:52;;;;;;;9.07;3.78;;;16.30;99.90;;;;;;5048693;28;20041;-63
2022/07/11 04:25:18;;;;;;;6.43;3.83;;;16.30;99.90;;;;;;5052263;28;20048;-62
2022/07/11 04:27:44;;;;;;;9.32;4.05;;;16.30;99.90;;;;;;5036457;28;20067;-63
2022/07/11 04:30:10;;;;;;;7.60;3.70;;;16.20;99.90;;;;;;5052345;28;20041;-62
2022/07/11 04:32:35;;;;;;;7.35;3.50;;;16.30;99.90;;;;;;5028605;28;20060;-62
2022/07/11 04:35:02;;;;;;;9.23;3.90;;;16.10;99.90;;;;;;5036058;28;20037;-62
2022/07/11 04:37:28;;;;;;;5.13;3.58;;;16.10;99.90;;;;;;5049334;28;20318;-63
2022/07/11 04:39:54;;;;;;;5.13;3.05;;;16.20;99.90;;;;;;5026398;28;20051;-63
2022/07/11 04:42:19;;;;;;;4.80;2.60;;;16.20;99.90;;;;;;5050140;28;20079;-64
2022/07/11 04:44:45;;;;;;;7.10;2.40;;;16.10;99.90;;;;;;5032191;28;20045;-63
2022/07/11 04:47:11;;;;;;;7.38;2.67;;;16.10;99.90;;;;;;5052185;28;20038;-63
2022/07/11 04:49:37;;;;;;;5.53;2.72;;;16.10;99.90;;;;;;5044996;28;20439;-63
2022/07/11 04:52:03;;;;;;;4.05;2.28;;;16.10;99.90;;;;;;5054931;28;20077;-63
2022/07/11 04:54:29;;;;;;;5.15;2.30;;;16.10;99.90;;;;;;5049027;28;20404;-62
2022/07/11 04:56:55;;;;;;;4.53;2.10;;;16.10;99.90;;;;;;5049764;28;20430;-62
2022/07/11 04:59:21;;;;;;;5.45;2.70;;;16.10;99.90;;;;;;5042585;28;20443;-63
2022/07/11 05:01:47;;;;;;;4.68;2.13;;;16.10;99.90;;;;;;5047005;28;20064;-62
2022/07/11 05:04:12;;;;;;;3.35;2.03;;;16.20;99.90;;;;;;5026307;28;20080;-63
2022/07/11 05:06:38;;;;;;;4.32;2.10;;;16.30;99.90;;;;;;5037503;28;20029;-63
2022/07/11 05:09:07;;;;;;;4.15;2.17;;;16.40;99.90;;;;;;5039807;28;20091;-62
2022/07/11 05:11:34;;;;;;;6.88;2.22;;;16.40;99.90;;;;;;5040653;28;20095;-63
2022/07/11 05:14:00;;;;;;;4.38;2.30;;;16.60;99.90;;;;;;5025078;28;20064;-63
2022/07/11 05:16:25;;;;;;;4.97;2.25;;;16.70;99.90;;;;;;5042415;28;20379;-62
2022/07/11 05:18:51;;;;;;;6.25;2.40;;;16.90;99.90;;;;;;5047705;28;20084;-63
2022/07/11 05:21:22;;;;;;;4.88;2.60;;;17.10;99.90;;;;;;5031477;28;20043;-63
2022/07/11 05:23:48;;;;;;;4.70;2.45;;;17.40;99.90;;;;;;5027427;28;20056;-63
2022/07/11 05:26:14;;;;;;;4.43;2.35;;;17.60;99.90;;;;;;5029302;28;20064;-63
2022/07/11 05:28:40;;;;;;;4.90;2.35;;;17.60;99.90;;;;;;5025480;28;20041;-63
2022/07/11 05:31:06;;;;;;;3.33;1.70;;;17.60;99.90;;;;;;5053150;28;20075;-62
2022/07/11 05:33:32;;;;;;;4.50;1.85;;;17.40;99.90;;;;;;5036925;28;20073;-64
2022/07/11 05:35:58;;;;;;;2.25;1.40;;;17.40;99.90;;;;;;5036813;28;20057;-62
2022/07/11 05:38:25;;;;;;;2.75;1.40;;;17.40;99.90;;;;;;5051887;28;20041;-62
2022/07/11 05:40:50;;;;;;;3.35;1.17;;;17.40;99.90;;;;;;5048949;28;20052;-63
2022/07/11 05:43:16;;;;;;;1.95;1.00;;;17.50;99.90;;;;;;5051573;28;20040;-62
2022/07/11 05:45:42;;;;;;;3.80;1.08;;;17.80;99.90;;;;;;5055262;28;20033;-63
2022/07/11 05:48:07;;;;;;;1.90;1.10;;;18.00;99.90;;;;;;5050290;28;20036;-63
2022/07/11 05:50:34;;;;;;;1.75;1.00;;;18.00;99.90;;;;;;5055361;28;20122;-65
2022/07/11 05:52:59;;;;;;;2.53;1.10;;;17.90;99.90;;;;;;5055250;28;20057;-65
2022/07/11 05:55:25;;;;;;;1.60;1.15;;;17.80;99.90;;;;;;5054982;28;20056;-65
2022/07/11 05:57:51;;;;;;;2.15;1.10;;;17.80;99.90;;;;;;5052648;28;20463;-62
2022/07/11 06:00:16;;;;;;;1.95;1.10;;;17.70;99.90;;;;;;5042692;28;20033;-62
2022/07/11 06:02:44;;;;;;;3.13;1.33;;;17.60;99.90;;;;;;5052458;28;20033;-63
2022/07/11 06:05:11;;;;;;;2.38;1.30;;;17.70;99.90;;;;;;5052789;28;20350;-62
2022/07/11 06:10:21;;;;;;;1.67;1.20;;;18.00;99.90;;;;;;5046977;28;20120;-63
2022/07/11 06:12:47;;;;;;;2.60;1.33;;;18.20;99.90;;;;;;5052697;28;20170;-62
2022/07/11 06:15:12;;;;;;;3.47;1.15;;;18.30;99.90;;;;;;5046914;28;20131;-63
2022/07/11 06:17:38;;;;;;;2.38;1.48;;;18.20;99.90;;;;;;5032611;28;20443;-63
2022/07/11 06:20:04;;;;;;;2.05;1.20;;;18.10;99.90;;;;;;5050464;28;20037;-63
2022/07/11 06:22:30;;;;;;;3.50;1.35;;;18.10;99.90;;;;;;5054032;28;20357;-63
2022/07/11 06:24:55;;;;;;;1.20;1.10;;;18.00;99.90;;;;;;5054096;28;20041;-63
2022/07/11 06:27:21;;;;;;;1.40;1.10;;;17.90;99.90;;;;;;5050358;28;20033;-63
2022/07/11 06:29:47;;;;;;;1.67;1.10;;;17.80;99.90;;;;;;5033047;28;20457;-63
2022/07/11 06:32:12;;;;;;;1.20;1.00;;;17.70;99.90;;;;;;5033229;28;20037;-63
2022/07/11 06:34:38;;;;;;;1.80;1.00;;;17.70;99.90;;;;;;5051138;28;20130;-64
2022/07/11 06:37:04;;;;;;;2.13;1.00;;;17.60;99.90;;;;;;5030088;28;20425;-63
2022/07/11 06:39:29;;;;;;;1.40;0.77;;;17.50;99.90;;;;;;5033863;28;20045;-63
2022/07/11 06:41:55;;;;;;;2.00;0.93;;;17.50;99.90;;;;;;5051217;28;20065;-63
2022/07/11 06:44:21;;;;;;;2.05;1.27;;;17.40;99.90;;;;;;5032821;28;20055;-64
2022/07/11 06:46:48;;;;;;;1.13;1.00;;;17.50;99.90;;;;;;5049888;28;20037;-63
2022/07/11 06:49:14;;;;;;;2.30;0.88;;;17.40;99.90;;;;;;5049813;28;20077;-62
2022/07/11 06:51:40;;;;;;;1.25;0.73;;;17.50;99.90;;;;;;5030061;28;20076;-63
2022/07/11 06:54:05;;;;;;;4.63;0.90;;;17.60;99.90;;;;;;5053620;28;20529;-63
2022/07/11 06:56:31;;;;;;;1.88;1.23;;;17.80;99.90;;;;;;5047740;28;20091;-63
2022/07/11 06:58:57;;;;;;;2.03;1.00;;;17.80;99.90;;;;;;5050382;28;20533;-62
2022/07/11 07:01:22;;;;;;;2.63;0.80;;;18.00;99.90;;;;;;5050981;28;20056;-63
2022/07/11 07:03:48;;;;;;;1.15;0.70;;;18.00;99.90;;;;;;5053393;28;20048;-63
2022/07/11 07:06:13;;;;;;;1.83;0.90;;;18.00;99.90;;;;;;5049511;28;20029;-63
2022/07/11 07:08:39;;;;;;;1.35;1.00;;;18.10;99.90;;;;;;5047587;28;20032;-63
2022/07/11 07:11:05;;;;;;;1.58;0.85;;;18.10;99.90;;;;;;5048052;28;20140;-63
2022/07/11 07:13:30;;;;;;;0.82;0.80;;;18.10;99.90;;;;;;5033980;28;20045;-64
2022/07/11 07:15:57;;;;;;;4.55;0.90;;;18.00;99.90;;;;;;5051594;28;20044;-62
2022/07/11 07:18:24;;;;;;;1.15;0.80;;;18.10;99.90;;;;;;5052726;28;20056;-63
2022/07/11 07:20:50;;;;;;;1.48;0.85;;;17.90;99.90;;;;;;5028095;28;20138;-62
2022/07/11 07:23:16;;;;;;;1.85;0.50;;;17.90;99.90;;;;;;5032763;28;20053;-62
2022/07/11 07:25:43;;;;;;;1.60;0.60;;;17.80;99.90;;;;;;5046749;28;20271;-63
2022/07/11 07:28:08;;;;;;;0.98;0.70;;;17.80;99.90;;;;;;5032213;28;20402;-63
2022/07/11 07:30:34;;;;;;;2.03;0.70;;;17.80;99.90;;;;;;5028385;28;20045;-63
2022/07/11 07:33:00;;;;;;;1.45;0.82;;;17.90;99.90;;;;;;5052507;28;20148;-62
2022/07/11 07:35:27;;;;;;;1.13;0.70;;;18.00;99.90;;;;;;5052049;28;20455;-63
2022/07/11 07:37:53;;;;;;;0.75;0.68;;;18.10;99.90;;;;;;5029776;28;20041;-63
2022/07/11 07:40:19;;;;;;;1.42;0.60;;;18.30;99.90;;;;;;5050409;28;20040;-61
2022/07/11 07:42:44;;;;;;;1.55;0.50;;;18.20;99.90;;;;;;5051306;28;20033;-63
2022/07/11 07:45:10;;;;;;;2.78;0.85;;;18.10;99.90;;;;;;5050074;28;20044;-62
2022/07/11 07:47:36;;;;;;;1.17;0.52;;;18.20;99.90;;;;;;5051162;28;20051;-62
2022/07/11 07:50:04;;;;;;;1.63;0.50;;;18.30;99.90;;;;;;5032836;28;20089;-63
2022/07/11 07:52:29;;;;;;;0.60;0.60;;;18.40;99.90;;;;;;5042605;28;20033;-62
2022/07/11 07:54:55;;;;;;;0.60;0.60;;;18.70;99.90;;;;;;5050976;28;20063;-63
2022/07/11 07:57:21;;;;;;;1.10;0.60;;;18.70;99.90;;;;;;5045906;28;20481;-62
2022/07/11 07:59:46;;;;;;;0.75;0.50;;;18.80;99.90;;;;;;5049379;28;20076;-63
2022/07/11 08:02:12;;;;;;;1.00;0.90;;;18.90;99.90;;;;;;5050806;28;20033;-62
2022/07/11 08:04:38;;;;;;;2.17;1.15;;;18.90;99.90;;;;;;5048336;28;20590;-63
2022/07/11 08:07:03;;;;;;;0.95;0.60;;;19.10;99.90;;;;;;5046730;28;20049;-62
2022/07/11 08:09:29;;;;;;;0.40;0.40;;;19.10;99.90;;;;;;5048360;28;20029;-63
2022/07/11 08:11:55;;;;;;;0.93;0.50;;;19.30;99.90;;;;;;5041446;28;20124;-63
2022/07/11 08:14:21;;;;;;;1.95;1.00;;;19.50;99.90;;;;;;5050285;28;20048;-63
2022/07/11 08:16:47;;;;;;;1.00;0.60;;;19.60;99.90;;;;;;5045634;28;20021;-62
2022/07/11 08:19:13;;;;;;;1.30;0.60;;;19.60;99.90;;;;;;5045844;28;20041;-62
2022/07/11 08:21:39;;;;;;;0.50;0.50;;;19.30;99.90;;;;;;5031208;28;20055;-63
2022/07/11 08:24:05;;;;;;;1.50;0.98;;;19.00;99.90;;;;;;5027965;28;20434;-62
2022/07/11 08:26:32;;;;;;;3.03;1.27;;;18.90;99.90;;;;;;5029408;28;20033;-62
2022/07/11 08:28:58;;;;;;;2.45;1.00;;;18.80;99.90;;;;;;5024875;28;20037;-62
2022/07/11 08:31:24;;;;;;;1.08;0.80;;;18.70;99.90;;;;;;5013439;28;20294;-63
2022/07/11 08:33:51;;;;;;;3.28;1.60;;;18.60;99.90;;;;;;5011618;28;20099;-62
2022/07/11 08:36:17;;;;;;;3.58;1.73;;;18.60;99.90;;;;;;5027212;28;20033;-61
2022/07/11 08:38:46;;;;;;;2.85;1.30;;;18.60;99.90;;;;;;5029870;28;20478;-61
2022/07/11 08:41:13;;;;;;;3.35;1.60;;;18.70;99.90;;;;;;5032289;28;20339;-62
2022/07/11 08:43:41;;;;;;;4.10;2.13;;;18.90;99.90;;;;;;5014811;28;20068;-62
2022/07/11 08:46:08;;;;;;;2.55;1.20;;;19.10;99.90;;;;;;5023322;28;20046;-62
2022/07/11 08:48:34;;;;;;;9.10;8.40;;;19.10;99.90;;;;;;5021464;28;20128;-61
2022/07/11 08:51:01;;;;;;;2.47;2.20;;;19.20;99.90;;;;;;5027067;28;20056;-61
2022/07/11 08:53:27;;;;;;;1.65;0.50;;;19.20;99.90;;;;;;5030026;28;20049;-62
2022/07/11 08:55:53;;;;;;;1.75;0.77;;;19.10;99.90;;;;;;5014503;28;20069;-62
2022/07/11 08:58:21;;;;;;;1.92;0.80;;;19.20;99.90;;;;;;5028930;28;20413;-62
2022/07/11 09:00:47;;;;;;;2.13;0.60;;;19.20;99.90;;;;;;5028445;28;20042;-61
2022/07/11 09:03:17;;;;;;;2.03;1.30;;;19.20;99.90;;;;;;5031895;28;20197;-62
2022/07/11 09:05:44;;;;;;;1.23;1.10;;;19.30;99.90;;;;;;5033169;28;20044;-61
2022/07/11 09:08:10;;;;;;;0.98;0.60;;;19.50;99.90;;;;;;5032692;28;20354;-62
2022/07/11 09:10:39;;;;;;;1.30;0.70;;;19.70;99.90;;;;;;5015572;28;20473;-61
2022/07/11 09:13:12;;;;;;;1.00;0.70;;;19.80;99.90;;;;;;5027280;28;20131;-62
2022/07/11 09:15:43;;;;;;;1.58;0.57;;;19.80;99.90;;;;;;5031963;28;20056;-62
2022/07/11 09:18:38;;;;;;;1.20;0.32;;;19.90;99.90;;;;;;5032061;28;20049;-63
2022/07/11 09:26:47;;;;;;;5.70;4.85;;;20.50;99.90;;;;;;5052541;28;20424;-62
2022/07/11 09:29:21;;;;;;;2.72;1.90;;;20.20;99.90;;;;;;5048378;28;20037;-62
2022/07/11 09:31:48;;;;;;;1.25;0.85;;;20.00;99.90;;;;;;5054620;28;20051;-61
2022/07/11 09:34:18;;;;;;;1.08;0.75;;;19.80;99.90;;;;;;5048878;28;20542;-62
2022/07/11 09:36:54;;;;;;;0.50;0.50;;;19.80;99.90;;;;;;5048422;28;20168;-62
2022/07/11 09:39:25;;;;;;;8.23;7.45;;;19.70;99.90;;;;;;5047640;28;20049;-62
2022/07/11 09:41:51;;;;;;;5.88;5.38;;;19.80;99.90;;;;;;5052636;28;20048;-62
2022/07/11 09:44:20;;;;;;;1.30;1.20;;;19.70;99.90;;;;;;5031487;28;20119;-62
2022/07/11 09:46:49;;;;;;;2.05;1.40;;;19.70;99.90;;;;;;5050716;28;20553;-63
2022/07/11 09:49:16;;;;;;;6.60;1.30;;;19.80;99.90;;;;;;5051016;28;20033;-63
2022/07/11 09:51:43;;;;;;;0.65;0.50;;;20.10;99.90;;;;;;5048745;28;20041;-64
2022/07/11 09:54:10;;;;;;;5.97;1.27;;;20.20;99.90;;;;;;5048936;28;20048;-63
2022/07/11 09:56:45;;;;;;;2.30;0.57;;;20.30;99.90;;;;;;5050206;28;20060;-63
2022/07/11 09:59:13;;;;;;;2.13;0.70;;;20.50;99.90;;;;;;5048612;28;20081;-63
2022/07/11 10:01:39;;;;;;;4.72;0.80;;;20.60;99.90;;;;;;5034142;28;20041;-63
2022/07/11 10:04:09;;;;;;;0.88;0.50;;;20.50;99.90;;;;;;5036796;28;20091;-63
2022/07/11 10:06:37;;;;;;;1.55;0.55;;;20.40;99.90;;;;;;5051591;28;20083;-62
2022/07/11 10:09:06;;;;;;;2.03;0.90;;;20.50;99.90;;;;;;5051721;28;20044;-63
2022/07/11 10:11:32;;;;;;;1.23;0.60;;;20.60;99.90;;;;;;5046222;28;20076;-62
2022/07/11 10:14:03;;;;;;;0.70;0.50;;;20.80;99.90;;;;;;5051349;28;20056;-62
2022/07/11 10:16:54;;;;;;;0.40;0.40;;;20.70;99.90;;;;;;5050643;28;20060;-61
2022/07/11 10:20:02;;;;;;;0.98;0.45;;;20.60;99.90;;;;;;5046715;28;20041;-61
2022/07/11 10:22:36;;;;;;;1.88;0.60;;;20.50;99.90;;;;;;5045666;28;20053;-61
2022/07/11 10:25:20;;;;;;;2.10;0.80;;;20.50;99.90;;;;;;5047602;28;20513;-61
2022/07/11 10:28:07;;;;;;;0.73;0.50;;;20.40;99.90;;;;;;5049438;28;20087;-61
2022/07/11 10:30:49;;;;;;;6.78;2.60;;;20.30;99.90;;;;;;5053017;28;20051;-61
2022/07/11 10:33:16;;;;;;;5.20;1.67;;;20.20;99.90;;;;;;5050820;28;20104;-62
2022/07/11 10:35:44;;;;;;;1.48;0.80;;;20.30;99.90;;;;;;5026714;28;20112;-61
2022/07/11 10:38:10;;;;;;;2.33;1.00;;;20.50;99.90;;;;;;5049928;28;20132;-62
2022/07/11 10:40:49;;;;;;;0.43;0.30;;;20.60;99.90;;;;;;5049405;28;20045;-62
2022/07/11 10:43:30;;;;;;;1.25;0.50;;;20.70;99.90;;;;;;5053806;28;20104;-61
2022/07/11 10:46:06;;;;;;;1.77;0.45;;;20.80;99.90;;;;;;5049641;28;20038;-62
2022/07/11 10:48:35;;;;;;;0.30;0.30;;;20.90;99.90;;;;;;5049867;28;20033;-61
2022/07/11 10:51:19;;;;;;;1.55;0.40;;;20.80;99.90;;;;;;5046813;28;20051;-62
2022/07/11 10:53:49;;;;;;;0.45;0.40;;;20.70;99.90;;;;;;5046745;28;20041;-61
2022/07/11 10:56:46;;;;;;;2.45;1.05;;;20.70;99.90;;;;;;5051442;28;20070;-62
2022/07/11 10:59:18;;;;;;;0.50;0.50;;;20.60;99.90;;;;;;5045991;28;20513;-62
2022/07/11 11:02:09;;;;;;;0.95;0.80;;;20.60;99.90;;;;;;5049008;28;20028;-62
2022/07/11 11:05:00;;;;;;;0.80;0.50;;;20.60;99.90;;;;;;5049620;28;20025;-62
2022/07/11 11:07:36;;;;;;;1.42;0.70;;;20.80;99.90;;;;;;5047929;28;20112;-62
2022/07/11 11:10:27;;;;;;;0.55;0.50;;;20.80;99.90;;;;;;5027531;28;20037;-62
2022/07/11 11:13:05;;;;;;;2.78;1.20;;;20.80;99.90;;;;;;5029302;28;20432;-62
2022/07/11 11:15:45;;;;;;;3.65;1.40;;;20.80;99.90;;;;;;5033772;28;20443;-62
2022/07/11 11:18:25;;;;;;;2.00;0.80;;;21.00;99.90;;;;;;5043693;28;20510;-62
2022/07/11 11:21:00;;;;;;;1.48;0.40;;;21.00;99.90;;;;;;5046943;28;20616;-62
2022/07/11 11:23:31;;;;;;;0.60;0.50;;;21.00;99.90;;;;;;5047090;28;20102;-62
2022/07/11 11:26:17;;;;;;;0.90;0.43;;;21.00;99.90;;;;;;5052253;28;20045;-62
2022/07/11 11:29:00;;;;;;;0.40;0.30;;;21.00;99.90;;;;;;5044652;28;20116;-63
2022/07/11 11:31:27;;;;;;;0.77;0.70;;;21.10;99.90;;;;;;5029049;28;20041;-62
2022/07/11 11:33:53;;;;;;;0.40;0.40;;;21.20;99.90;;;;;;5049672;28;20059;-62
2022/07/11 11:36:22;;;;;;;0.60;0.43;;;21.20;99.90;;;;;;5048770;28;20029;-62
2022/07/11 11:38:48;;;;;;;0.57;0.57;;;21.30;99.90;;;;;;5048174;28;20082;-62
2022/07/11 11:41:22;;;;;;;0.82;0.70;;;21.10;99.90;;;;;;5044859;28;20486;-63
2022/07/11 11:43:48;;;;;;;0.55;0.47;;;21.00;99.90;;;;;;5042785;28;20032;-62
2022/07/11 11:46:13;;;;;;;0.50;0.43;;;21.10;99.90;;;;;;5054752;28;20028;-63
2022/07/11 11:48:45;;;;;;;0.57;0.57;;;21.10;99.90;;;;;;5048530;28;20091;-63
2022/07/11 11:51:13;;;;;;;1.23;0.60;;;21.10;99.90;;;;;;5029086;28;20056;-63
2022/07/11 11:53:50;;;;;;;0.50;0.50;;;21.20;99.90;;;;;;5041613;28;20065;-64
2022/07/11 11:56:29;;;;;;;0.55;0.50;;;21.40;99.90;;;;;;5050221;28;20436;-63
2022/07/11 11:59:05;;;;;;;0.52;0.52;;;21.40;99.90;;;;;;5033374;28;20049;-62
2022/07/11 12:01:32;;;;;;;0.57;0.57;;;21.50;99.90;;;;;;5050923;28;20463;-63
2022/07/11 12:04:00;;;;;;;7.38;6.78;;;21.60;99.90;;;;;;5037594;28;20048;-63
2022/07/11 12:06:31;;;;;;;1.48;1.38;;;21.60;99.90;;;;;;5048908;28;20040;-63
2022/07/11 12:14:55;;;;;;;1.30;1.20;;;21.80;99.90;;;;;;5047734;28;20101;-63
2022/07/11 12:17:25;;;;;;;1.15;0.82;;;21.80;99.90;;;;;;5028065;28;20048;-62
2022/07/11 12:19:51;;;;;;;0.63;0.63;;;21.80;99.90;;;;;;5029070;28;20036;-63
2022/07/11 12:22:17;;;;;;;2.05;0.57;;;21.80;99.90;;;;;;5041632;28;20056;-62
2022/07/11 12:24:48;;;;;;;1.10;0.60;;;21.90;99.90;;;;;;5029197;28;20042;-63
2022/07/11 12:27:18;;;;;;;0.82;0.82;;;21.90;99.90;;;;;;5049936;28;20042;-62
2022/07/11 12:29:49;;;;;;;0.75;0.60;;;21.90;99.90;;;;;;5048017;28;20072;-62
2022/07/11 12:32:16;;;;;;;2.25;0.50;;;22.10;99.90;;;;;;5030647;28;20068;-62
2022/07/11 12:34:44;;;;;;;1.00;0.60;;;22.10;99.90;;;;;;5046134;28;20029;-62
2022/07/11 12:37:12;;;;;;;3.22;0.80;;;22.20;99.90;;;;;;5051726;28;20044;-62
2022/07/11 12:39:46;;;;;;;0.57;0.57;;;22.30;99.90;;;;;;5045399;28;20045;-62
2022/07/11 12:42:23;;;;;;;1.20;1.00;;;22.40;99.90;;;;;;5048479;28;20037;-63
2022/07/11 12:45:10;;;;;;;1.63;1.00;;;22.30;99.90;;;;;;5049172;28;20128;-62
2022/07/11 12:47:39;;;;;;;2.58;0.70;;;22.30;99.90;;;;;;5029943;28;20049;-61
2022/07/11 12:50:28;;;;;;;0.55;0.55;;;22.20;99.90;;;;;;5048193;28;20489;-62
2022/07/11 12:52:56;;;;;;;0.88;0.85;;;22.30;99.90;;;;;;5032427;28;20053;-62
2022/07/11 12:55:32;;;;;;;0.90;0.60;;;22.10;99.90;;;;;;5049046;28;20047;-62
2022/07/11 12:58:16;;;;;;;1.13;0.60;;;22.00;99.90;;;;;;5045722;28;20128;-62
2022/07/11 13:00:56;;;;;;;2.58;1.00;;;21.80;99.90;;;;;;5045322;28;20044;-62
2022/07/11 13:03:48;;;;;;;1.35;0.93;;;21.70;99.90;;;;;;5045346;28;20044;-62
2022/07/11 13:06:15;;;;;;;1.70;0.57;;;21.80;99.90;;;;;;5050294;28;20391;-62